Terminal Aerodrome Forecast
Issued by NWS

Home | Current Version | Previous Version | Text Only | Print | Product List | Glossary On
Versions: 1 2 3 4 5 6 7 8 9 10 11 12 13 14
980
FTUS42 KTBW 101722
TAFPIE
TAF
KPIE 101722Z 1018/1118 05010KT P6SM SCT250
     FM102100 06012KT P6SM SCT060 BKN200=

USA.gov is the U.S. government's official web portal to all federal, state and local government web resources and services.